Latest Weather Observations for Telfer

IDW60801

Issued at 7:03 pm WST Tuesday 24 October 2017 (issued every 30 minutes, with the page automatically refreshed every 10 minutes)

About weather observations | Map of weather stations | Latest weather observations for WA | Other Formats
Station Details ID: 013030 Name: TELFER AERO Lat: -21.71 Lon: 122.23 Height: 291.9 m
Data from the previous 72 hours. | See also: Recent months at Telfer
Date/Time
WST
Temp
°C
App
Temp
°C
Dew
Point
°C
Rel
Hum
%
Delta-T
°C
Wind Press
QNH
hPa
Press
MSL
hPa
Rain since
9am
mm
Dir  Spd
km/h
Gust
km/h
Spd
kts
Gust
kts
24/07:00pm 35.8 31.3 7.0 17 16.2 SSW 20 32 11 17 1011.4 1009.4 0.0
24/06:30pm 36.3 31.5 5.5 15 16.9 S 20 28 11 15 1011.0 1009.0 0.0
24/06:00pm 37.0 31.7 5.1 14 17.5 SSW 22 32 12 17 1010.7 1008.7 0.0
24/05:30pm 38.0 33.0 4.8 13 18.2 S 20 39 11 21 1010.5 1008.5 0.0
24/05:27pm 38.1 33.3 4.9 13 18.2 S 19 37 10 20 1010.4 1008.4 0.0
24/05:00pm 38.9 35.6 4.4 12 18.9 SSW 11 17 6 9 1010.2 1008.2 0.0
24/04:30pm 38.7 34.2 4.2 12 18.8 SSW 17 26 9 14 1010.0 1008.0 0.0
24/04:00pm 39.7 35.1 3.7 11 19.6 SSW 17 26 9 14 1009.6 1007.6 0.0
24/03:30pm 40.3 36.2 4.2 11 19.8 E 15 32 8 17 1009.7 1007.7 0.0
24/03:00pm 39.6 34.4 3.7 11 19.5 SE 20 26 11 14 1010.1 1008.1 0.0
24/02:30pm 40.2 36.1 4.1 11 19.8 E 15 20 8 11 1010.2 1008.2 0.0
24/02:00pm 39.6 35.2 4.9 12 19.2 SSE 17 26 9 14 1010.4 1008.4 0.0
24/01:30pm 39.9 36.1 3.9 11 19.7 NE 13 20 7 11 1010.5 1008.5 0.0
24/01:00pm 39.2 35.9 4.6 12 19.0 S 11 20 6 11 1010.8 1008.8 0.0
24/12:30pm 38.6 34.1 4.1 12 18.8 ESE 17 30 9 16 1011.2 1009.2 0.0
24/12:00pm 39.2 35.3 3.4 11 19.4 ESE 13 33 7 18 1011.7 1009.7 0.0
24/11:30am 38.7 33.6 3.0 11 19.1 ESE 19 30 10 16 1012.2 1010.2 0.0
24/11:00am 38.5 33.4 4.1 12 18.7 ESE 20 33 11 18 1012.6 1010.7 0.0
24/10:30am 38.3 32.4 3.9 12 18.6 SE 24 35 13 19 1012.8 1010.9 0.0
24/10:00am 37.3 31.1 4.3 13 17.9 ESE 26 37 14 20 1013.0 1011.1 0.0
24/09:30am 36.8 30.1 3.9 13 17.7 SE 28 39 15 21 1013.2 1011.2 0.0
24/09:00am 35.8 28.8 4.2 14 17.0 SE 30 41 16 22 1013.3 1011.3 0.0
24/08:30am 35.5 28.5 3.9 14 16.9 SSE 30 39 16 21 1013.2 1011.2 0.0
24/08:00am 34.2 26.8 4.8 16 15.8 SSE 33 43 18 23 1013.2 1011.2 0.0
24/07:30am 32.9 25.9 7.0 20 14.3 SSE 33 41 18 22 1012.9 1011.0 0.0
24/07:00am 31.8 25.7 8.1 23 13.3 SSE 30 43 16 23 1012.7 1010.8 0.0
24/06:30am 30.1 26.2 12.1 33 10.7 S 24 32 13 17 1012.4 1010.4 0.0
24/06:00am 29.6 25.7 12.1 34 10.3 SSE 24 32 13 17 1012.1 1010.1 0.0
24/05:30am 30.1 26.8 11.6 32 10.9 S 20 28 11 15 1011.8 1009.8 0.0
24/05:00am 30.6 27.3 11.5 30 11.2 S 20 26 11 14 1011.5 1009.5 0.0
24/04:30am 30.9 27.7 11.3 30 11.5 SSW 19 26 10 14 1011.4 1009.4 0.0
24/04:00am 30.9 28.1 11.3 30 11.5 SSW 17 24 9 13 1011.3 1009.3 0.0
24/03:30am 31.3 27.3 11.7 30 11.6 SSW 24 37 13 20 1011.0 1009.0 0.0
24/03:00am 31.6 27.5 11.4 29 11.9 SSW 24 32 13 17 1010.8 1008.8 0.0
24/02:30am 31.7 28.0 11.5 29 11.9 S 22 30 12 16 1010.9 1008.9 0.0
24/02:00am 32.8 29.0 11.3 27 12.7 SW 22 32 12 17 1011.2 1009.2 0.0
24/01:30am 32.3 26.8 12.0 29 12.1 SW 32 43 17 23 1010.8 1008.8 0.0
24/01:00am 34.5 29.2 9.7 22 14.4 SW 28 35 15 19 1010.8 1008.8 0.0
24/12:30am 33.8 30.1 11.6 26 13.2 WSW 22 35 12 19 1010.8 1008.8 0.0
24/12:00am 31.1 28.0 13.4 34 10.7 SW 22 33 12 18 1011.4 1009.4 0.0
 
Date/Time
WST
Temp
°C
App
Temp
°C
Dew
Point
°C
Rel
Hum
%
Delta-T
°C
Wind Press
QNH
hPa
Press
MSL
hPa
Rain since
9am
mm
Dir  Spd
km/h
Gust
km/h
Spd
kts
Gust
kts
23/11:42pm 32.6 29.9 11.7 28 12.4 SSW 17 46 9 25 1011.7 1009.7 0.0
23/11:30pm 29.9 29.1 10.9 31 11.0 ESE 6 9 3 5 1010.9 1008.9 0.0
23/11:00pm 32.6 31.7 10.6 26 12.9 WSW 6 6 3 3 1011.0 1009.0 0.0
23/10:30pm 32.9 31.5 10.9 26 12.9 S 9 11 5 6 1011.1 1009.1 0.0
23/10:00pm 31.5 31.9 11.3 29 11.9 CALM 0 0 0 0 1011.3 1009.3 0.0
23/09:30pm 30.5 29.3 11.5 31 11.2 SSE 9 11 5 6 1011.3 1009.3 0.0
23/09:00pm 32.6 32.3 8.8 23 13.5 CALM 0 0 0 0 1011.3 1009.3 0.0
23/08:30pm 33.9 33.7 9.2 22 14.2 CALM 0 0 0 0 1011.1 1009.1 0.0
23/08:00pm 33.6 33.5 9.6 23 13.9 CALM 0 0 0 0 1010.9 1008.9 0.0
23/07:30pm 34.3 34.2 9.5 22 14.4 CALM 0 0 0 0 1010.7 1008.7 0.0
23/07:00pm 35.1 35.0 9.5 21 14.9 CALM 0 0 0 0 1010.5 1008.5 0.0
23/06:30pm 36.4 35.1 9.1 19 15.9 NNW 6 6 3 3 1010.3 1008.3 0.0
23/06:00pm 37.0 35.4 8.8 18 16.4 NW 7 9 4 5 1010.0 1008.0 0.0
23/05:30pm 37.8 36.7 8.6 17 16.9 WNW 4 9 2 5 1009.8 1007.8 0.0
23/05:00pm 38.4 35.9 8.1 16 17.5 W 11 19 6 10 1009.7 1007.7 0.0
23/04:30pm 38.5 34.9 8.2 16 17.5 W 17 33 9 18 1009.3 1007.3 0.0
23/04:00pm 40.0 36.8 8.5 15 18.4 WNW 15 24 8 13 1009.2 1007.2 0.0
23/03:30pm 39.1 35.3 7.7 15 18.1 W 17 26 9 14 1009.2 1007.2 0.0
23/03:00pm 39.5 36.6 8.1 15 18.2 WSW 13 19 7 10 1009.3 1007.3 0.0
23/02:30pm 39.8 37.3 8.3 15 18.3 SSW 11 22 6 12 1009.4 1007.5 0.0
23/02:00pm 38.7 36.0 7.4 15 17.9 S 11 19 6 10 1009.8 1007.8 0.0
23/01:30pm 37.6 34.9 7.5 16 17.2 SSW 11 24 6 13 1010.0 1008.0 0.0
23/01:00pm 37.2 34.8 7.2 16 17.0 WNW 9 19 5 10 1010.5 1008.5 0.0
23/12:30pm 37.9 35.1 6.8 15 17.6 NE 11 20 6 11 1010.9 1008.9 0.0
23/12:00pm 37.8 34.4 7.7 16 17.2 E 15 26 8 14 1011.4 1009.4 0.0
23/11:30am 35.9 32.2 10.2 21 15.1 ESE 20 32 11 17 1011.9 1009.9 0.0
23/11:00am 34.8 31.2 10.6 23 14.3 ESE 20 32 11 17 1012.5 1010.6 0.0
23/10:30am 34.3 30.4 10.8 24 13.9 SE 22 32 12 17 1013.2 1011.2 0.0
23/10:00am 32.9 28.3 10.9 26 12.9 SE 26 33 14 18 1013.5 1011.5 0.0
23/09:30am 32.5 28.2 12.2 29 12.2 SSE 26 35 14 19 1014.0 1012.0 0.0
23/09:00am 31.0 27.3 12.8 32 10.9 SSE 24 32 13 17 1014.1 1012.1 0.0
23/08:30am 29.8 26.7 14.4 39 9.4 SSE 24 32 13 17 1014.2 1012.2 0.0
23/08:00am 29.2 26.5 14.6 41 9.0 SSE 22 32 12 17 1014.4 1012.4 0.0
23/07:30am 28.3 25.1 14.2 42 8.6 S 24 33 13 18 1014.3 1012.3 0.0
23/07:00am 28.3 24.3 14.2 42 8.6 SSE 28 35 15 19 1013.6 1011.6 0.0
23/06:30am 28.2 24.2 14.1 42 8.5 SSE 28 41 15 22 1013.2 1011.2 0.0
23/06:00am 27.0 23.2 13.7 44 8.0 SE 26 32 14 17 1012.7 1010.8 0.0
23/05:30am 26.6 22.3 13.3 43 7.9 SE 28 35 15 19 1012.3 1010.3 0.0
23/05:00am 27.0 22.4 13.4 43 8.1 SSE 30 39 16 21 1012.2 1010.2 0.0
23/04:30am 27.6 23.5 12.8 40 8.8 S 26 39 14 21 1012.3 1010.3 0.0
23/04:00am 28.5 22.8 11.1 34 10.1 S 32 41 17 22 1011.9 1009.9 0.0
23/03:30am 29.7 24.3 6.4 23 12.6 S 24 37 13 20 1011.8 1009.8 0.0
23/03:00am 30.2 24.7 4.0 19 13.6 S 22 37 12 20 1011.7 1009.7 0.0
23/02:30am 30.2 23.6 4.0 19 13.6 SSW 28 39 15 21 1011.7 1009.7 0.0
23/02:28am 30.3 23.7 4.1 19 13.6 SSW 28 39 15 21 1011.6 1009.6 0.0
23/02:00am 30.1 26.8 4.7 20 13.3 S 11 13 6 7 1011.0 1009.0 0.0
23/01:30am 29.5 27.4 5.6 22 12.7 ESE 6 7 3 4 1011.1 1009.1 0.0
23/01:00am 29.8 26.9 4.4 20 13.3 ENE 9 13 5 7 1011.3 1009.3 0.0
23/12:30am 30.5 27.7 5.0 20 13.5 NNE 9 15 5 8 1011.7 1009.7 0.0
23/12:00am 30.5 27.7 5.0 20 13.5 NNW 9 17 5 9 1012.0 1010.0 0.0
 
Date/Time
WST
Temp
°C
App
Temp
°C
Dew
Point
°C
Rel
Hum
%
Delta-T
°C
Wind Press
QNH
hPa
Press
MSL
hPa
Rain since
9am
mm
Dir  Spd
km/h
Gust
km/h
Spd
kts
Gust
kts
22/11:30pm 31.4 27.8 5.0 19 14.0 ESE 13 17 7 9 1011.6 1009.6 0.0
22/11:00pm 32.3 27.1 5.7 19 14.4 ESE 22 28 12 15 1011.7 1009.7 0.0
22/10:30pm 33.4 28.2 7.4 20 14.5 ESE 24 35 13 19 1011.9 1009.9 0.0
22/10:00pm 33.6 31.7 9.0 22 14.1 SE 9 11 5 6 1012.0 1010.0 0.0
22/09:30pm 34.2 30.3 9.4 22 14.3 ESE 20 24 11 13 1012.0 1010.0 0.0
22/09:00pm 35.0 31.7 9.4 21 14.9 ESE 17 26 9 14 1012.2 1010.2 0.0
22/08:30pm 35.5 30.9 9.8 21 15.0 S 24 44 13 24 1012.4 1010.4 0.0
22/08:00pm 35.0 32.6 10.1 22 14.6 SSE 13 28 7 15 1011.7 1009.7 0.0
22/07:30pm 34.6 33.3 9.8 22 14.4 NNE 7 9 4 5 1010.9 1008.9 0.0
22/07:00pm 35.6 33.9 9.9 21 15.1 N 9 11 5 6 1010.7 1008.7 0.0
22/06:30pm 36.2 34.8 9.7 20 15.5 N 7 11 4 6 1010.5 1008.5 0.0
22/06:00pm 37.0 36.0 8.8 18 16.4 NE 4 7 2 4 1010.2 1008.2 0.0
22/05:30pm 37.9 36.4 8.6 17 17.0 ESE 6 7 3 4 1010.0 1008.0 0.0
22/05:00pm 38.1 36.3 7.9 16 17.4 ESE 7 11 4 6 1009.8 1007.8 0.0
22/04:30pm 38.6 37.8 8.3 16 17.6 ESE 2 7 1 4 1009.7 1007.7 0.0
22/04:00pm 38.5 37.3 8.2 16 17.5 NW 4 9 2 5 1009.8 1007.8 0.0
22/03:30pm 38.6 36.5 8.3 16 17.6 W 9 13 5 7 1009.9 1007.9 0.0
22/03:00pm 38.9 37.2 8.5 16 17.7 WNW 7 19 4 10 1009.9 1007.9 0.0
22/02:30pm 39.7 37.1 9.2 16 18.0 N 13 28 7 15 1010.1 1008.1 0.0
22/02:00pm 38.9 36.1 8.5 16 17.7 N 13 20 7 11 1010.3 1008.3 0.0
22/01:30pm 39.1 35.6 8.7 16 17.8 NW 17 28 9 15 1010.7 1008.7 0.0
22/01:00pm 38.3 35.6 9.0 17 17.1 NNW 13 20 7 11 1011.1 1009.1 0.0
22/12:30pm 38.2 36.3 10.5 19 16.5 NW 11 22 6 12 1011.6 1009.6 0.0
22/12:00pm 37.8 36.6 10.2 19 16.4 WNW 7 17 4 9 1012.2 1010.2 0.0
22/11:30am 38.7 35.5 10.1 18 17.0 NW 17 32 9 17 1012.7 1010.8 0.0
22/11:00am 37.9 34.6 9.5 18 16.7 NNW 17 30 9 16 1013.2 1011.2 0.0
22/10:30am 37.4 34.6 9.9 19 16.2 NNE 15 28 8 15 1013.5 1011.5 0.0
22/10:00am 36.9 33.6 9.5 19 16.0 NE 17 24 9 13 1013.7 1011.7 0.0
22/09:30am 36.6 32.6 9.2 19 16.0 NE 20 30 11 16 1014.1 1012.1 0.0
22/09:00am 35.6 31.6 8.4 19 15.6 E 19 26 10 14 1014.2 1012.2 0.0
22/08:30am 34.6 31.2 9.1 21 14.7 E 17 24 9 13 1014.4 1012.4 0.0
22/08:00am 34.1 31.9 9.4 22 14.3 ESE 11 15 6 8 1014.4 1012.4 0.0
22/07:30am 33.1 32.6 12.1 27 12.6 SSW 6 9 3 5 1014.3 1012.3 0.0
22/07:05am 31.9 31.3 12.2 30 11.8 S 7 13 4 7 1014.3 1012.3 0.0
22/07:00am 31.5 30.5 12.3 31 11.5 SSW 9 11 5 6 1014.4 1012.4 0.0
22/06:46am 30.9 29.5 12.3 32 11.1 WSW 11 15 6 8 1014.2 1012.2 0.0
22/06:30am 29.8 27.6 10.9 31 11.0 WSW 13 17 7 9 1013.9 1011.9 0.0
22/06:00am 29.2 28.6 10.3 31 10.8 ENE 4 7 2 4 1013.4 1011.4 0.0
22/05:30am 27.7 26.6 10.0 33 10.0 N 6 7 3 4 1013.2 1011.2 0.0
22/05:00am 27.4 26.2 9.7 33 10.0 ENE 6 9 3 5 1012.9 1011.0 0.0
22/04:30am 27.4 26.4 10.2 34 9.8 N 6 7 3 4 1012.8 1010.9 0.0
22/04:00am 26.7 25.6 10.8 37 9.1 ENE 7 9 4 5 1012.5 1010.6 0.0
22/03:30am 26.1 24.6 11.8 41 8.3 ENE 11 15 6 8 1012.3 1010.3 0.0
22/03:00am 27.7 25.2 10.9 35 9.7 E 15 17 8 9 1011.9 1009.9 0.0
22/02:30am 28.4 27.4 11.0 34 10.0 E 7 9 4 5 1011.8 1009.8 0.0
22/02:00am 28.5 29.0 11.6 35 9.9 CALM 0 0 0 0 1011.9 1009.9 0.0
22/01:30am 29.8 30.4 11.8 33 10.6 CALM 0 0 0 0 1012.1 1010.1 0.0
22/01:00am 30.8 31.3 11.7 31 11.3 CALM 0 0 0 0 1012.3 1010.3 0.0
22/12:30am 31.5 28.8 11.8 30 11.7 NNW 17 28 9 15 1012.8 1010.9 0.0
22/12:00am 31.2 30.1 12.1 31 11.4 SE 9 13 5 7 1012.6 1010.7 0.0
 
Date/Time
WST
Temp
°C
App
Temp
°C
Dew
Point
°C
Rel
Hum
%
Delta-T
°C
Wind Press
QNH
hPa
Press
MSL
hPa
Rain since
9am
mm
Dir  Spd
km/h
Gust
km/h
Spd
kts
Gust
kts
21/11:30pm 31.3 30.0 12.6 31 11.2 SE 11 15 6 8 1012.8 1010.9 0.0
21/11:00pm 31.2 30.7 12.5 31 11.2 SE 7 7 4 4 1013.2 1011.2 0.0
21/10:30pm 31.4 30.5 12.7 32 11.2 SE 9 11 5 6 1013.4 1011.4 0.0
21/10:00pm 31.3 31.2 14.0 35 10.6 E 7 9 4 5 1013.5 1011.5 0.0
21/09:30pm 32.0 33.0 13.2 31 11.4 CALM 0 0 0 0 1013.6 1011.6 0.0
21/09:00pm 32.4 33.4 13.1 31 11.7 CALM 0 0 0 0 1013.5 1011.5 0.0
21/08:30pm 32.7 33.2 12.9 30 12.0 ESE 2 7 1 4 1013.3 1011.3 0.0
21/08:00pm 33.2 32.9 12.8 29 12.4 NNE 6 7 3 4 1013.2 1011.2 0.0
21/07:30pm 33.9 33.3 12.3 27 13.0 ESE 7 7 4 4 1012.9 1011.0 0.0

Other Formats:

Comma delimited format used in spreadsheet applications
http://www.bom.gov.au/fwo/IDW60801/IDW60801.94319.axf

JavaScript Object Notation format (JSON) in row-major order
http://www.bom.gov.au/fwo/IDW60801/IDW60801.94319.json